sensor_id;sensor_type;location;lat;lon;timestamp;P1;durP1;ratioP1;P2;durP2;ratioP2
64894;SDS011;51588;53.702;10.208;2022-08-01T00:01:11;4.83;;;4.43;;
64894;SDS011;51588;53.702;10.208;2022-08-01T00:03:37;5.70;;;5.20;;
64894;SDS011;51588;53.702;10.208;2022-08-01T00:06:04;4.40;;;4.10;;
64894;SDS011;51588;53.702;10.208;2022-08-01T00:08:30;4.93;;;4.53;;
64894;SDS011;51588;53.702;10.208;2022-08-01T00:10:56;4.23;;;3.90;;
64894;SDS011;51588;53.702;10.208;2022-08-01T00:13:23;4.60;;;4.27;;
64894;SDS011;51588;53.702;10.208;2022-08-01T00:15:49;4.40;;;4.10;;
64894;SDS011;51588;53.702;10.208;2022-08-01T00:18:17;4.63;;;4.00;;
64894;SDS011;51588;53.702;10.208;2022-08-01T00:20:43;4.67;;;4.27;;
64894;SDS011;51588;53.702;10.208;2022-08-01T00:23:10;4.60;;;4.20;;
64894;SDS011;51588;53.702;10.208;2022-08-01T00:25:36;4.87;;;4.47;;
64894;SDS011;51588;53.702;10.208;2022-08-01T00:28:02;4.83;;;4.43;;
64894;SDS011;51588;53.702;10.208;2022-08-01T00:30:29;4.50;;;4.10;;
64894;SDS011;51588;53.702;10.208;2022-08-01T00:32:55;4.47;;;4.07;;
64894;SDS011;51588;53.702;10.208;2022-08-01T00:35:23;4.80;;;4.40;;
64894;SDS011;51588;53.702;10.208;2022-08-01T00:37:49;3.90;;;3.60;;
64894;SDS011;51588;53.702;10.208;2022-08-01T00:40:16;4.57;;;4.17;;
64894;SDS011;51588;53.702;10.208;2022-08-01T00:42:42;4.47;;;4.17;;
64894;SDS011;51588;53.702;10.208;2022-08-01T00:45:09;5.03;;;4.60;;
64894;SDS011;51588;53.702;10.208;2022-08-01T00:47:36;4.30;;;3.90;;
64894;SDS011;51588;53.702;10.208;2022-08-01T00:50:03;4.43;;;3.90;;
64894;SDS011;51588;53.702;10.208;2022-08-01T00:52:31;4.83;;;4.43;;
64894;SDS011;51588;53.702;10.208;2022-08-01T00:54:57;4.80;;;4.40;;
64894;SDS011;51588;53.702;10.208;2022-08-01T00:57:23;4.33;;;4.00;;
64894;SDS011;51588;53.702;10.208;2022-08-01T00:59:50;4.93;;;4.13;;
64894;SDS011;51588;53.702;10.208;2022-08-01T01:02:16;4.90;;;4.50;;
64894;SDS011;51588;53.702;10.208;2022-08-01T01:04:43;5.17;;;4.67;;
64894;SDS011;51588;53.702;10.208;2022-08-01T01:07:12;5.13;;;4.67;;
64894;SDS011;51588;53.702;10.208;2022-08-01T01:09:44;4.80;;;4.40;;
64894;SDS011;51588;53.702;10.208;2022-08-01T01:12:13;4.80;;;4.40;;
64894;SDS011;51588;53.702;10.208;2022-08-01T01:14:42;4.83;;;4.43;;
64894;SDS011;51588;53.702;10.208;2022-08-01T01:17:11;4.30;;;3.90;;
64894;SDS011;51588;53.702;10.208;2022-08-01T01:19:39;4.57;;;4.17;;
64894;SDS011;51588;53.702;10.208;2022-08-01T01:22:18;5.97;;;4.53;;
64894;SDS011;51588;53.702;10.208;2022-08-01T01:24:50;8.00;;;4.50;;
64894;SDS011;51588;53.702;10.208;2022-08-01T01:27:24;5.77;;;4.30;;
64894;SDS011;51588;53.702;10.208;2022-08-01T01:29:56;4.20;;;3.80;;
64894;SDS011;51588;53.702;10.208;2022-08-01T01:32:25;4.57;;;4.17;;
64894;SDS011;51588;53.702;10.208;2022-08-01T01:34:54;5.10;;;4.60;;
64894;SDS011;51588;53.702;10.208;2022-08-01T01:37:21;5.77;;;3.90;;
64894;SDS011;51588;53.702;10.208;2022-08-01T01:39:49;4.27;;;3.87;;
64894;SDS011;51588;53.702;10.208;2022-08-01T01:42:17;5.10;;;4.60;;
64894;SDS011;51588;53.702;10.208;2022-08-01T01:44:43;5.27;;;4.77;;
64894;SDS011;51588;53.702;10.208;2022-08-01T01:47:12;4.40;;;4.00;;
64894;SDS011;51588;53.702;10.208;2022-08-01T01:49:38;4.70;;;4.30;;
64894;SDS011;51588;53.702;10.208;2022-08-01T01:52:05;5.00;;;4.60;;
64894;SDS011;51588;53.702;10.208;2022-08-01T01:54:33;5.27;;;4.77;;
64894;SDS011;51588;53.702;10.208;2022-08-01T01:57:00;4.37;;;3.97;;
64894;SDS011;51588;53.702;10.208;2022-08-01T01:59:28;4.90;;;4.50;;
64894;SDS011;51588;53.702;10.208;2022-08-01T02:01:56;4.60;;;4.20;;
64894;SDS011;51588;53.702;10.208;2022-08-01T02:04:25;4.30;;;3.90;;
64894;SDS011;51588;53.702;10.208;2022-08-01T02:06:52;4.70;;;4.27;;
64894;SDS011;51588;53.702;10.208;2022-08-01T02:09:20;5.23;;;4.73;;
64894;SDS011;51588;53.702;10.208;2022-08-01T02:11:47;4.83;;;4.43;;
64894;SDS011;51588;53.702;10.208;2022-08-01T02:14:14;4.77;;;4.37;;
64894;SDS011;51588;53.702;10.208;2022-08-01T02:16:41;4.23;;;3.83;;
64894;SDS011;51588;53.702;10.208;2022-08-01T02:19:09;4.30;;;4.00;;
64894;SDS011;51588;53.702;10.208;2022-08-01T02:21:39;4.90;;;4.40;;
64894;SDS011;51588;53.702;10.208;2022-08-01T02:24:07;4.53;;;4.13;;
64894;SDS011;51588;53.702;10.208;2022-08-01T02:26:36;4.50;;;4.13;;
64894;SDS011;51588;53.702;10.208;2022-08-01T02:29:05;4.33;;;3.93;;
64894;SDS011;51588;53.702;10.208;2022-08-01T02:31:33;4.43;;;4.03;;
64894;SDS011;51588;53.702;10.208;2022-08-01T02:34:02;4.30;;;3.80;;
64894;SDS011;51588;53.702;10.208;2022-08-01T02:36:31;5.50;;;3.40;;
64894;SDS011;51588;53.702;10.208;2022-08-01T02:39:00;3.90;;;3.60;;
64894;SDS011;51588;53.702;10.208;2022-08-01T02:41:27;3.97;;;3.67;;
64894;SDS011;51588;53.702;10.208;2022-08-01T02:43:56;3.70;;;3.40;;
64894;SDS011;51588;53.702;10.208;2022-08-01T02:46:25;4.57;;;3.50;;
64894;SDS011;51588;53.702;10.208;2022-08-01T02:48:54;4.57;;;3.80;;
64894;SDS011;51588;53.702;10.208;2022-08-01T02:51:22;4.00;;;3.70;;
64894;SDS011;51588;53.702;10.208;2022-08-01T02:53:49;4.30;;;3.90;;
64894;SDS011;51588;53.702;10.208;2022-08-01T02:56:17;4.00;;;3.67;;
64894;SDS011;51588;53.702;10.208;2022-08-01T02:58:45;3.60;;;3.30;;
64894;SDS011;51588;53.702;10.208;2022-08-01T03:01:12;3.73;;;3.30;;
64894;SDS011;51588;53.702;10.208;2022-08-01T03:03:39;3.63;;;3.33;;
64894;SDS011;51588;53.702;10.208;2022-08-01T03:06:05;3.60;;;3.30;;
64894;SDS011;51588;53.702;10.208;2022-08-01T03:08:32;3.87;;;3.50;;
64894;SDS011;51588;53.702;10.208;2022-08-01T03:11:00;3.60;;;3.30;;
64894;SDS011;51588;53.702;10.208;2022-08-01T03:13:29;4.07;;;3.67;;
64894;SDS011;51588;53.702;10.208;2022-08-01T03:15:57;3.70;;;3.40;;
64894;SDS011;51588;53.702;10.208;2022-08-01T03:18:24;3.40;;;3.20;;
64894;SDS011;51588;53.702;10.208;2022-08-01T03:20:52;3.80;;;3.50;;
64894;SDS011;51588;53.702;10.208;2022-08-01T03:23:20;3.70;;;3.40;;
64894;SDS011;51588;53.702;10.208;2022-08-01T03:25:47;3.80;;;3.40;;
64894;SDS011;51588;53.702;10.208;2022-08-01T03:28:14;3.60;;;3.30;;
64894;SDS011;51588;53.702;10.208;2022-08-01T03:30:43;3.00;;;2.80;;
64894;SDS011;51588;53.702;10.208;2022-08-01T03:33:10;3.40;;;3.10;;
64894;SDS011;51588;53.702;10.208;2022-08-01T03:35:37;3.57;;;3.27;;
64894;SDS011;51588;53.702;10.208;2022-08-01T03:38:05;3.50;;;3.20;;
64894;SDS011;51588;53.702;10.208;2022-08-01T03:40:35;3.63;;;3.33;;
64894;SDS011;51588;53.702;10.208;2022-08-01T03:43:03;3.47;;;3.17;;
64894;SDS011;51588;53.702;10.208;2022-08-01T03:45:34;3.70;;;3.40;;
64894;SDS011;51588;53.702;10.208;2022-08-01T03:48:04;4.40;;;3.73;;
64894;SDS011;51588;53.702;10.208;2022-08-01T03:50:31;3.40;;;3.10;;
64894;SDS011;51588;53.702;10.208;2022-08-01T03:53:00;3.10;;;2.90;;
64894;SDS011;51588;53.702;10.208;2022-08-01T03:55:26;3.83;;;3.53;;
64894;SDS011;51588;53.702;10.208;2022-08-01T03:57:53;3.63;;;3.33;;
64894;SDS011;51588;53.702;10.208;2022-08-01T04:00:20;3.97;;;3.57;;
64894;SDS011;51588;53.702;10.208;2022-08-01T04:02:46;6.60;;;3.23;;
64894;SDS011;51588;53.702;10.208;2022-08-01T04:05:15;3.63;;;3.33;;
64894;SDS011;51588;53.702;10.208;2022-08-01T04:07:45;4.10;;;3.37;;
64894;SDS011;51588;53.702;10.208;2022-08-01T04:10:12;3.33;;;3.03;;
64894;SDS011;51588;53.702;10.208;2022-08-01T04:12:38;3.67;;;3.37;;
64894;SDS011;51588;53.702;10.208;2022-08-01T04:15:05;4.17;;;3.77;;
64894;SDS011;51588;53.702;10.208;2022-08-01T04:17:32;3.37;;;2.80;;
64894;SDS011;51588;53.702;10.208;2022-08-01T04:19:58;3.30;;;3.00;;
64894;SDS011;51588;53.702;10.208;2022-08-01T04:22:26;3.47;;;3.17;;
64894;SDS011;51588;53.702;10.208;2022-08-01T04:24:53;3.53;;;3.23;;
64894;SDS011;51588;53.702;10.208;2022-08-01T04:27:22;3.10;;;2.80;;
64894;SDS011;51588;53.702;10.208;2022-08-01T04:29:49;3.57;;;3.27;;
64894;SDS011;51588;53.702;10.208;2022-08-01T04:32:17;3.87;;;3.50;;
64894;SDS011;51588;53.702;10.208;2022-08-01T04:34:45;3.20;;;2.90;;
64894;SDS011;51588;53.702;10.208;2022-08-01T04:37:12;3.20;;;3.00;;
64894;SDS011;51588;53.702;10.208;2022-08-01T04:39:42;3.10;;;2.90;;
64894;SDS011;51588;53.702;10.208;2022-08-01T04:42:10;3.20;;;3.00;;
64894;SDS011;51588;53.702;10.208;2022-08-01T04:44:37;3.50;;;3.20;;
64894;SDS011;51588;53.702;10.208;2022-08-01T04:47:04;3.67;;;3.37;;
64894;SDS011;51588;53.702;10.208;2022-08-01T04:49:34;2.90;;;2.70;;
64894;SDS011;51588;53.702;10.208;2022-08-01T04:52:00;3.50;;;3.20;;
64894;SDS011;51588;53.702;10.208;2022-08-01T04:54:27;2.90;;;2.70;;
64894;SDS011;51588;53.702;10.208;2022-08-01T04:56:55;2.90;;;2.70;;
64894;SDS011;51588;53.702;10.208;2022-08-01T04:59:24;2.93;;;2.73;;
64894;SDS011;51588;53.702;10.208;2022-08-01T05:02:06;3.50;;;3.20;;
64894;SDS011;51588;53.702;10.208;2022-08-01T05:04:33;2.57;;;2.37;;
64894;SDS011;51588;53.702;10.208;2022-08-01T05:06:59;3.20;;;2.90;;
64894;SDS011;51588;53.702;10.208;2022-08-01T05:09:25;3.40;;;3.10;;
64894;SDS011;51588;53.702;10.208;2022-08-01T05:11:52;3.17;;;2.97;;
64894;SDS011;51588;53.702;10.208;2022-08-01T05:14:20;2.90;;;2.60;;
64894;SDS011;51588;53.702;10.208;2022-08-01T05:16:46;3.20;;;3.00;;
64894;SDS011;51588;53.702;10.208;2022-08-01T05:19:12;2.57;;;2.37;;
64894;SDS011;51588;53.702;10.208;2022-08-01T05:21:39;2.97;;;2.73;;
64894;SDS011;51588;53.702;10.208;2022-08-01T05:24:05;3.20;;;2.90;;
64894;SDS011;51588;53.702;10.208;2022-08-01T05:26:32;2.57;;;2.37;;
64894;SDS011;51588;53.702;10.208;2022-08-01T05:28:58;2.50;;;2.30;;
64894;SDS011;51588;53.702;10.208;2022-08-01T05:31:26;2.37;;;2.17;;
64894;SDS011;51588;53.702;10.208;2022-08-01T05:33:52;2.43;;;2.23;;
64894;SDS011;51588;53.702;10.208;2022-08-01T05:36:18;2.17;;;2.07;;
64894;SDS011;51588;53.702;10.208;2022-08-01T05:38:45;2.37;;;2.17;;
64894;SDS011;51588;53.702;10.208;2022-08-01T05:41:11;2.30;;;2.10;;
64894;SDS011;51588;53.702;10.208;2022-08-01T05:43:37;2.13;;;2.03;;
64894;SDS011;51588;53.702;10.208;2022-08-01T05:46:04;2.00;;;1.90;;
64894;SDS011;51588;53.702;10.208;2022-08-01T05:48:31;2.30;;;2.10;;
64894;SDS011;51588;53.702;10.208;2022-08-01T05:50:58;2.20;;;2.10;;
64894;SDS011;51588;53.702;10.208;2022-08-01T05:53:24;2.07;;;1.97;;
64894;SDS011;51588;53.702;10.208;2022-08-01T05:55:51;2.80;;;2.00;;
64894;SDS011;51588;53.702;10.208;2022-08-01T05:58:17;2.80;;;2.57;;
64894;SDS011;51588;53.702;10.208;2022-08-01T06:00:43;2.50;;;2.30;;
64894;SDS011;51588;53.702;10.208;2022-08-01T06:03:10;1.90;;;1.80;;
64894;SDS011;51588;53.702;10.208;2022-08-01T06:05:38;2.60;;;2.40;;
64894;SDS011;51588;53.702;10.208;2022-08-01T06:08:05;2.13;;;1.93;;
64894;SDS011;51588;53.702;10.208;2022-08-01T06:10:31;2.10;;;1.90;;
64894;SDS011;51588;53.702;10.208;2022-08-01T06:12:57;2.40;;;2.20;;
64894;SDS011;51588;53.702;10.208;2022-08-01T06:15:27;2.10;;;2.00;;
64894;SDS011;51588;53.702;10.208;2022-08-01T06:17:54;2.40;;;2.10;;
64894;SDS011;51588;53.702;10.208;2022-08-01T06:20:20;2.83;;;2.50;;
64894;SDS011;51588;53.702;10.208;2022-08-01T06:22:48;2.43;;;2.03;;
64894;SDS011;51588;53.702;10.208;2022-08-01T06:25:16;2.50;;;2.30;;
64894;SDS011;51588;53.702;10.208;2022-08-01T06:27:42;3.67;;;2.30;;
64894;SDS011;51588;53.702;10.208;2022-08-01T06:30:09;2.00;;;1.90;;
64894;SDS011;51588;53.702;10.208;2022-08-01T06:32:36;2.03;;;1.93;;
64894;SDS011;51588;53.702;10.208;2022-08-01T06:35:02;2.60;;;2.07;;
64894;SDS011;51588;53.702;10.208;2022-08-01T06:37:29;1.93;;;1.83;;
64894;SDS011;51588;53.702;10.208;2022-08-01T06:39:57;2.20;;;2.00;;
64894;SDS011;51588;53.702;10.208;2022-08-01T06:42:26;2.20;;;2.00;;
64894;SDS011;51588;53.702;10.208;2022-08-01T06:44:52;2.00;;;1.80;;
64894;SDS011;51588;53.702;10.208;2022-08-01T06:47:18;3.10;;;1.83;;
64894;SDS011;51588;53.702;10.208;2022-08-01T06:49:45;2.10;;;1.90;;
64894;SDS011;51588;53.702;10.208;2022-08-01T06:52:11;2.20;;;2.00;;
64894;SDS011;51588;53.702;10.208;2022-08-01T06:54:37;2.27;;;2.03;;
64894;SDS011;51588;53.702;10.208;2022-08-01T06:57:05;2.43;;;2.17;;
64894;SDS011;51588;53.702;10.208;2022-08-01T06:59:32;2.90;;;2.00;;
64894;SDS011;51588;53.702;10.208;2022-08-01T07:01:58;2.27;;;2.00;;
64894;SDS011;51588;53.702;10.208;2022-08-01T07:04:26;2.20;;;2.00;;
64894;SDS011;51588;53.702;10.208;2022-08-01T07:06:52;1.97;;;1.87;;
64894;SDS011;51588;53.702;10.208;2022-08-01T07:09:18;2.20;;;2.00;;
64894;SDS011;51588;53.702;10.208;2022-08-01T07:11:45;2.37;;;2.00;;
64894;SDS011;51588;53.702;10.208;2022-08-01T07:14:12;1.90;;;1.80;;
64894;SDS011;51588;53.702;10.208;2022-08-01T07:16:39;2.30;;;2.00;;
64894;SDS011;51588;53.702;10.208;2022-08-01T07:19:05;2.33;;;1.80;;
64894;SDS011;51588;53.702;10.208;2022-08-01T07:21:31;2.70;;;2.13;;
64894;SDS011;51588;53.702;10.208;2022-08-01T07:23:58;3.13;;;2.03;;
64894;SDS011;51588;53.702;10.208;2022-08-01T07:26:24;2.87;;;2.00;;
64894;SDS011;51588;53.702;10.208;2022-08-01T07:28:51;2.90;;;2.20;;
64894;SDS011;51588;53.702;10.208;2022-08-01T07:31:19;3.10;;;2.13;;
64894;SDS011;51588;53.702;10.208;2022-08-01T07:33:45;2.30;;;2.00;;
64894;SDS011;51588;53.702;10.208;2022-08-01T07:36:12;2.63;;;2.10;;
64894;SDS011;51588;53.702;10.208;2022-08-01T07:38:38;2.50;;;1.97;;
64894;SDS011;51588;53.702;10.208;2022-08-01T07:41:04;3.20;;;2.20;;
64894;SDS011;51588;53.702;10.208;2022-08-01T07:43:31;2.77;;;2.30;;
64894;SDS011;51588;53.702;10.208;2022-08-01T07:45:57;2.43;;;2.00;;
64894;SDS011;51588;53.702;10.208;2022-08-01T07:48:25;2.97;;;2.07;;
64894;SDS011;51588;53.702;10.208;2022-08-01T07:50:52;2.27;;;2.00;;
64894;SDS011;51588;53.702;10.208;2022-08-01T07:53:18;2.30;;;2.10;;
64894;SDS011;51588;53.702;10.208;2022-08-01T07:55:44;2.97;;;2.00;;
64894;SDS011;51588;53.702;10.208;2022-08-01T07:58:11;4.37;;;2.20;;
64894;SDS011;51588;53.702;10.208;2022-08-01T08:00:37;2.30;;;2.10;;
64894;SDS011;51588;53.702;10.208;2022-08-01T08:03:03;4.50;;;2.10;;
64894;SDS011;51588;53.702;10.208;2022-08-01T08:05:32;4.53;;;2.30;;
64894;SDS011;51588;53.702;10.208;2022-08-01T08:08:00;3.10;;;2.30;;
64894;SDS011;51588;53.702;10.208;2022-08-01T08:10:26;2.80;;;2.17;;
64894;SDS011;51588;53.702;10.208;2022-08-01T08:12:52;3.10;;;2.00;;
64894;SDS011;51588;53.702;10.208;2022-08-01T08:15:19;2.90;;;1.83;;
64894;SDS011;51588;53.702;10.208;2022-08-01T08:17:45;4.20;;;2.20;;
64894;SDS011;51588;53.702;10.208;2022-08-01T08:20:11;2.40;;;1.90;;
64894;SDS011;51588;53.702;10.208;2022-08-01T08:22:39;2.87;;;2.27;;
64894;SDS011;51588;53.702;10.208;2022-08-01T08:25:06;3.90;;;2.20;;
64894;SDS011;51588;53.702;10.208;2022-08-01T08:27:32;3.93;;;2.23;;
64894;SDS011;51588;53.702;10.208;2022-08-01T08:29:59;3.30;;;2.10;;
64894;SDS011;51588;53.702;10.208;2022-08-01T08:32:25;2.23;;;1.90;;
64894;SDS011;51588;53.702;10.208;2022-08-01T08:34:51;3.13;;;2.10;;
64894;SDS011;51588;53.702;10.208;2022-08-01T08:37:17;2.10;;;1.80;;
64894;SDS011;51588;53.702;10.208;2022-08-01T08:39:45;2.37;;;1.80;;
64894;SDS011;51588;53.702;10.208;2022-08-01T08:42:12;2.10;;;1.93;;
64894;SDS011;51588;53.702;10.208;2022-08-01T08:44:39;3.37;;;2.23;;
64894;SDS011;51588;53.702;10.208;2022-08-01T08:47:06;2.37;;;2.10;;
64894;SDS011;51588;53.702;10.208;2022-08-01T08:49:33;3.00;;;2.20;;
64894;SDS011;51588;53.702;10.208;2022-08-01T08:52:00;2.70;;;2.50;;
64894;SDS011;51588;53.702;10.208;2022-08-01T08:54:27;4.27;;;2.07;;
64894;SDS011;51588;53.702;10.208;2022-08-01T08:56:54;2.97;;;2.43;;
64894;SDS011;51588;53.702;10.208;2022-08-01T08:59:21;2.63;;;2.37;;
64894;SDS011;51588;53.702;10.208;2022-08-01T09:01:49;3.73;;;2.60;;
64894;SDS011;51588;53.702;10.208;2022-08-01T09:04:15;2.00;;;1.80;;
64894;SDS011;51588;53.702;10.208;2022-08-01T09:06:42;2.10;;;1.90;;
64894;SDS011;51588;53.702;10.208;2022-08-01T09:09:09;2.83;;;2.30;;
64894;SDS011;51588;53.702;10.208;2022-08-01T09:11:35;3.93;;;2.40;;
64894;SDS011;51588;53.702;10.208;2022-08-01T09:14:07;3.80;;;2.30;;
64894;SDS011;51588;53.702;10.208;2022-08-01T09:16:35;3.07;;;1.93;;
64894;SDS011;51588;53.702;10.208;2022-08-01T09:19:08;3.10;;;1.90;;
64894;SDS011;51588;53.702;10.208;2022-08-01T09:21:35;2.10;;;1.87;;
64894;SDS011;51588;53.702;10.208;2022-08-01T09:24:01;2.97;;;2.17;;
64894;SDS011;51588;53.702;10.208;2022-08-01T09:26:31;3.27;;;2.00;;
64894;SDS011;51588;53.702;10.208;2022-08-01T09:28:58;2.90;;;2.10;;
64894;SDS011;51588;53.702;10.208;2022-08-01T09:31:26;3.23;;;2.20;;
64894;SDS011;51588;53.702;10.208;2022-08-01T09:33:53;2.37;;;1.90;;
64894;SDS011;51588;53.702;10.208;2022-08-01T09:36:20;3.17;;;2.20;;
64894;SDS011;51588;53.702;10.208;2022-08-01T09:38:47;2.37;;;2.17;;
64894;SDS011;51588;53.702;10.208;2022-08-01T09:41:13;2.37;;;1.93;;
64894;SDS011;51588;53.702;10.208;2022-08-01T09:43:40;2.50;;;2.30;;
64894;SDS011;51588;53.702;10.208;2022-08-01T09:46:13;2.27;;;1.90;;
64894;SDS011;51588;53.702;10.208;2022-08-01T09:48:41;2.20;;;2.00;;
64894;SDS011;51588;53.702;10.208;2022-08-01T09:51:26;2.80;;;1.97;;
64894;SDS011;51588;53.702;10.208;2022-08-01T09:53:53;2.67;;;2.10;;
64894;SDS011;51588;53.702;10.208;2022-08-01T09:56:21;3.07;;;2.10;;
64894;SDS011;51588;53.702;10.208;2022-08-01T09:58:49;4.50;;;2.20;;
64894;SDS011;51588;53.702;10.208;2022-08-01T10:01:15;2.23;;;1.80;;
64894;SDS011;51588;53.702;10.208;2022-08-01T10:03:43;3.40;;;1.97;;
64894;SDS011;51588;53.702;10.208;2022-08-01T10:06:19;3.20;;;2.00;;
64894;SDS011;51588;53.702;10.208;2022-08-01T10:08:46;4.93;;;2.30;;
64894;SDS011;51588;53.702;10.208;2022-08-01T10:11:13;2.93;;;1.90;;
64894;SDS011;51588;53.702;10.208;2022-08-01T10:13:39;2.87;;;2.23;;
64894;SDS011;51588;53.702;10.208;2022-08-01T10:16:06;2.90;;;1.90;;
64894;SDS011;51588;53.702;10.208;2022-08-01T10:18:33;3.00;;;1.90;;
64894;SDS011;51588;53.702;10.208;2022-08-01T10:21:02;2.70;;;2.17;;
64894;SDS011;51588;53.702;10.208;2022-08-01T10:23:30;3.43;;;2.20;;
64894;SDS011;51588;53.702;10.208;2022-08-01T10:25:59;3.10;;;2.17;;
64894;SDS011;51588;53.702;10.208;2022-08-01T10:28:26;4.33;;;1.83;;
64894;SDS011;51588;53.702;10.208;2022-08-01T10:30:53;2.53;;;2.00;;
64894;SDS011;51588;53.702;10.208;2022-08-01T10:33:21;2.37;;;2.00;;
64894;SDS011;51588;53.702;10.208;2022-08-01T10:35:47;3.40;;;2.20;;
64894;SDS011;51588;53.702;10.208;2022-08-01T10:38:15;2.43;;;2.20;;
64894;SDS011;51588;53.702;10.208;2022-08-01T10:40:42;3.80;;;2.27;;
64894;SDS011;51588;53.702;10.208;2022-08-01T10:43:09;3.80;;;2.07;;
64894;SDS011;51588;53.702;10.208;2022-08-01T10:45:35;2.80;;;1.90;;
64894;SDS011;51588;53.702;10.208;2022-08-01T10:48:03;3.73;;;1.70;;
64894;SDS011;51588;53.702;10.208;2022-08-01T10:50:31;4.50;;;2.50;;
64894;SDS011;51588;53.702;10.208;2022-08-01T10:53:11;3.10;;;2.13;;
64894;SDS011;51588;53.702;10.208;2022-08-01T10:55:49;2.00;;;1.77;;
64894;SDS011;51588;53.702;10.208;2022-08-01T10:58:19;2.80;;;1.90;;
64894;SDS011;51588;53.702;10.208;2022-08-01T11:00:46;2.30;;;1.90;;
64894;SDS011;51588;53.702;10.208;2022-08-01T11:03:12;4.30;;;2.07;;
64894;SDS011;51588;53.702;10.208;2022-08-01T11:05:39;2.50;;;1.93;;
64894;SDS011;51588;53.702;10.208;2022-08-01T11:08:09;2.40;;;1.87;;
64894;SDS011;51588;53.702;10.208;2022-08-01T11:10:36;3.27;;;1.93;;
64894;SDS011;51588;53.702;10.208;2022-08-01T11:13:04;2.47;;;1.87;;
64894;SDS011;51588;53.702;10.208;2022-08-01T11:15:33;2.17;;;1.80;;
64894;SDS011;51588;53.702;10.208;2022-08-01T11:18:00;2.53;;;2.00;;
64894;SDS011;51588;53.702;10.208;2022-08-01T11:20:27;2.43;;;2.00;;
64894;SDS011;51588;53.702;10.208;2022-08-01T11:28:38;4.80;;;2.57;;
64894;SDS011;51588;53.702;10.208;2022-08-01T11:33:50;2.70;;;2.07;;
64894;SDS011;51588;53.702;10.208;2022-08-01T11:36:17;3.50;;;2.00;;
64894;SDS011;51588;53.702;10.208;2022-08-01T11:38:46;2.70;;;1.97;;
64894;SDS011;51588;53.702;10.208;2022-08-01T11:41:13;2.13;;;1.90;;
64894;SDS011;51588;53.702;10.208;2022-08-01T11:43:55;2.40;;;1.73;;
64894;SDS011;51588;53.702;10.208;2022-08-01T11:49:21;2.77;;;1.80;;
64894;SDS011;51588;53.702;10.208;2022-08-01T11:51:48;2.47;;;2.10;;
64894;SDS011;51588;53.702;10.208;2022-08-01T11:54:15;3.10;;;2.10;;
64894;SDS011;51588;53.702;10.208;2022-08-01T11:56:42;2.20;;;2.00;;
64894;SDS011;51588;53.702;10.208;2022-08-01T11:59:09;4.17;;;2.13;;
64894;SDS011;51588;53.702;10.208;2022-08-01T12:01:36;3.33;;;2.27;;
64894;SDS011;51588;53.702;10.208;2022-08-01T12:04:02;2.33;;;1.80;;
64894;SDS011;51588;53.702;10.208;2022-08-01T12:06:29;2.33;;;1.70;;
64894;SDS011;51588;53.702;10.208;2022-08-01T12:08:55;2.93;;;1.77;;
64894;SDS011;51588;53.702;10.208;2022-08-01T12:11:40;2.40;;;1.87;;
64894;SDS011;51588;53.702;10.208;2022-08-01T12:14:06;2.57;;;1.87;;
64894;SDS011;51588;53.702;10.208;2022-08-01T12:16:34;2.63;;;2.27;;
64894;SDS011;51588;53.702;10.208;2022-08-01T12:19:00;4.13;;;2.50;;
64894;SDS011;51588;53.702;10.208;2022-08-01T12:21:27;2.80;;;1.67;;
64894;SDS011;51588;53.702;10.208;2022-08-01T12:23:59;2.90;;;1.87;;
64894;SDS011;51588;53.702;10.208;2022-08-01T12:26:38;2.60;;;1.97;;
64894;SDS011;51588;53.702;10.208;2022-08-01T12:29:04;2.57;;;1.97;;
64894;SDS011;51588;53.702;10.208;2022-08-01T12:31:31;2.50;;;1.77;;
64894;SDS011;51588;53.702;10.208;2022-08-01T12:33:58;2.10;;;1.80;;
64894;SDS011;51588;53.702;10.208;2022-08-01T12:36:45;2.20;;;1.73;;
64894;SDS011;51588;53.702;10.208;2022-08-01T12:39:12;2.80;;;1.77;;
64894;SDS011;51588;53.702;10.208;2022-08-01T12:41:38;3.83;;;1.90;;
64894;SDS011;51588;53.702;10.208;2022-08-01T12:44:12;3.50;;;2.03;;
64894;SDS011;51588;53.702;10.208;2022-08-01T12:46:39;2.63;;;1.53;;
64894;SDS011;51588;53.702;10.208;2022-08-01T12:49:07;2.13;;;1.73;;
64894;SDS011;51588;53.702;10.208;2022-08-01T12:51:33;3.03;;;2.10;;
64894;SDS011;51588;53.702;10.208;2022-08-01T12:53:59;2.77;;;2.03;;
64894;SDS011;51588;53.702;10.208;2022-08-01T12:56:30;3.30;;;2.00;;
64894;SDS011;51588;53.702;10.208;2022-08-01T12:58:57;4.40;;;2.17;;
64894;SDS011;51588;53.702;10.208;2022-08-01T13:01:25;2.53;;;1.77;;
64894;SDS011;51588;53.702;10.208;2022-08-01T13:03:58;2.20;;;1.60;;
64894;SDS011;51588;53.702;10.208;2022-08-01T13:06:27;2.77;;;1.63;;
64894;SDS011;51588;53.702;10.208;2022-08-01T13:08:54;2.83;;;1.63;;
64894;SDS011;51588;53.702;10.208;2022-08-01T13:11:20;2.40;;;1.90;;
64894;SDS011;51588;53.702;10.208;2022-08-01T13:13:47;2.83;;;2.00;;
64894;SDS011;51588;53.702;10.208;2022-08-01T13:16:14;1.97;;;1.60;;
64894;SDS011;51588;53.702;10.208;2022-08-01T13:18:41;2.40;;;1.60;;
64894;SDS011;51588;53.702;10.208;2022-08-01T13:21:14;2.93;;;1.63;;
64894;SDS011;51588;53.702;10.208;2022-08-01T13:23:42;2.10;;;1.60;;
64894;SDS011;51588;53.702;10.208;2022-08-01T13:26:37;3.30;;;1.70;;
64894;SDS011;51588;53.702;10.208;2022-08-01T13:29:03;2.20;;;1.60;;
64894;SDS011;51588;53.702;10.208;2022-08-01T13:31:31;1.93;;;1.53;;
64894;SDS011;51588;53.702;10.208;2022-08-01T13:33:58;2.40;;;1.73;;
64894;SDS011;51588;53.702;10.208;2022-08-01T13:36:24;2.13;;;1.90;;
64894;SDS011;51588;53.702;10.208;2022-08-01T13:38:54;3.10;;;1.67;;
64894;SDS011;51588;53.702;10.208;2022-08-01T13:41:38;4.50;;;1.80;;
64894;SDS011;51588;53.702;10.208;2022-08-01T13:44:04;2.00;;;1.80;;
64894;SDS011;51588;53.702;10.208;2022-08-01T13:46:33;1.70;;;1.60;;
64894;SDS011;51588;53.702;10.208;2022-08-01T13:49:00;3.10;;;1.67;;
64894;SDS011;51588;53.702;10.208;2022-08-01T13:51:26;2.80;;;1.90;;
64894;SDS011;51588;53.702;10.208;2022-08-01T13:53:52;2.10;;;1.30;;
64894;SDS011;51588;53.702;10.208;2022-08-01T13:56:20;3.47;;;2.20;;
64894;SDS011;51588;53.702;10.208;2022-08-01T13:58:46;1.53;;;1.43;;
64894;SDS011;51588;53.702;10.208;2022-08-01T14:01:13;2.83;;;1.73;;
64894;SDS011;51588;53.702;10.208;2022-08-01T14:03:39;1.87;;;1.67;;
64894;SDS011;51588;53.702;10.208;2022-08-01T14:06:05;1.73;;;1.60;;
64894;SDS011;51588;53.702;10.208;2022-08-01T14:08:32;2.57;;;1.90;;
64894;SDS011;51588;53.702;10.208;2022-08-01T14:10:58;3.20;;;1.80;;
64894;SDS011;51588;53.702;10.208;2022-08-01T14:13:27;3.20;;;1.93;;
64894;SDS011;51588;53.702;10.208;2022-08-01T14:15:54;3.50;;;1.70;;
64894;SDS011;51588;53.702;10.208;2022-08-01T14:18:20;3.10;;;1.87;;
64894;SDS011;51588;53.702;10.208;2022-08-01T14:20:47;2.80;;;1.90;;
64894;SDS011;51588;53.702;10.208;2022-08-01T14:23:13;3.07;;;1.83;;
64894;SDS011;51588;53.702;10.208;2022-08-01T14:25:40;1.60;;;1.50;;
64894;SDS011;51588;53.702;10.208;2022-08-01T14:28:06;2.80;;;1.80;;
64894;SDS011;51588;53.702;10.208;2022-08-01T14:30:34;3.47;;;1.87;;
64894;SDS011;51588;53.702;10.208;2022-08-01T14:33:01;2.07;;;1.50;;
64894;SDS011;51588;53.702;10.208;2022-08-01T14:35:27;2.33;;;1.60;;
64894;SDS011;51588;53.702;10.208;2022-08-01T14:37:53;2.43;;;1.70;;
64894;SDS011;51588;53.702;10.208;2022-08-01T14:40:20;2.73;;;1.97;;
64894;SDS011;51588;53.702;10.208;2022-08-01T14:42:46;2.23;;;1.43;;
64894;SDS011;51588;53.702;10.208;2022-08-01T14:45:14;1.60;;;1.33;;
64894;SDS011;51588;53.702;10.208;2022-08-01T14:47:42;1.97;;;1.50;;